sensor_id;sensor_type;location;lat;lon;timestamp;P1;durP1;ratioP1;P2;durP2;ratioP2
51883;SDS011;37915;53.254;6.598;2023-08-31T00:00:09;8.82;;;1.92;;
51883;SDS011;37915;53.254;6.598;2023-08-31T00:02:35;4.78;;;1.70;;
51883;SDS011;37915;53.254;6.598;2023-08-31T00:05:01;5.82;;;1.67;;
51883;SDS011;37915;53.254;6.598;2023-08-31T00:07:28;3.90;;;1.40;;
51883;SDS011;37915;53.254;6.598;2023-08-31T00:09:54;6.45;;;1.70;;
51883;SDS011;37915;53.254;6.598;2023-08-31T00:12:20;7.93;;;1.52;;
51883;SDS011;37915;53.254;6.598;2023-08-31T00:14:49;3.63;;;1.25;;
51883;SDS011;37915;53.254;6.598;2023-08-31T00:17:15;4.55;;;1.30;;
51883;SDS011;37915;53.254;6.598;2023-08-31T00:19:40;4.10;;;1.35;;
51883;SDS011;37915;53.254;6.598;2023-08-31T00:22:06;3.40;;;1.40;;
51883;SDS011;37915;53.254;6.598;2023-08-31T00:24:33;4.75;;;1.92;;
51883;SDS011;37915;53.254;6.598;2023-08-31T00:27:01;4.38;;;1.33;;
51883;SDS011;37915;53.254;6.598;2023-08-31T00:29:31;5.22;;;1.60;;
51883;SDS011;37915;53.254;6.598;2023-08-31T00:31:57;6.00;;;1.77;;
51883;SDS011;37915;53.254;6.598;2023-08-31T00:34:23;4.90;;;1.77;;
51883;SDS011;37915;53.254;6.598;2023-08-31T00:36:48;4.85;;;1.70;;
51883;SDS011;37915;53.254;6.598;2023-08-31T00:39:14;4.80;;;1.50;;
51883;SDS011;37915;53.254;6.598;2023-08-31T00:41:45;4.60;;;1.83;;
51883;SDS011;37915;53.254;6.598;2023-08-31T00:44:11;5.90;;;1.98;;
51883;SDS011;37915;53.254;6.598;2023-08-31T00:46:37;6.97;;;2.05;;
51883;SDS011;37915;53.254;6.598;2023-08-31T00:49:03;9.07;;;2.00;;
51883;SDS011;37915;53.254;6.598;2023-08-31T00:51:31;4.93;;;1.70;;
51883;SDS011;37915;53.254;6.598;2023-08-31T00:53:58;6.28;;;1.77;;
51883;SDS011;37915;53.254;6.598;2023-08-31T00:56:24;4.70;;;1.90;;
51883;SDS011;37915;53.254;6.598;2023-08-31T00:58:51;4.95;;;2.00;;
51883;SDS011;37915;53.254;6.598;2023-08-31T01:12:53;5.20;;;2.20;;
51883;SDS011;37915;53.254;6.598;2023-08-31T01:15:05;4.82;;;2.30;;
51883;SDS011;37915;53.254;6.598;2023-08-31T01:17:57;6.20;;;2.47;;
51883;SDS011;37915;53.254;6.598;2023-08-31T01:20:28;5.63;;;2.10;;
51883;SDS011;37915;53.254;6.598;2023-08-31T01:23:04;6.32;;;2.30;;
51883;SDS011;37915;53.254;6.598;2023-08-31T01:25:35;4.38;;;2.25;;
51883;SDS011;37915;53.254;6.598;2023-08-31T01:28:02;9.55;;;3.28;;
51883;SDS011;37915;53.254;6.598;2023-08-31T01:30:31;8.40;;;2.55;;
51883;SDS011;37915;53.254;6.598;2023-08-31T01:32:57;7.68;;;1.70;;
51883;SDS011;37915;53.254;6.598;2023-08-31T01:35:24;10.80;;;2.55;;
51883;SDS011;37915;53.254;6.598;2023-08-31T01:37:55;7.97;;;2.30;;
51883;SDS011;37915;53.254;6.598;2023-08-31T01:43:11;8.60;;;2.22;;
51883;SDS011;37915;53.254;6.598;2023-08-31T01:45:37;9.77;;;2.03;;
51883;SDS011;37915;53.254;6.598;2023-08-31T01:48:04;7.75;;;2.00;;
51883;SDS011;37915;53.254;6.598;2023-08-31T01:50:30;5.82;;;1.90;;
51883;SDS011;37915;53.254;6.598;2023-08-31T01:52:56;6.68;;;2.25;;
51883;SDS011;37915;53.254;6.598;2023-08-31T01:55:22;4.93;;;1.73;;
51883;SDS011;37915;53.254;6.598;2023-08-31T01:57:48;4.53;;;1.70;;
51883;SDS011;37915;53.254;6.598;2023-08-31T02:00:15;6.70;;;2.28;;
51883;SDS011;37915;53.254;6.598;2023-08-31T02:02:42;5.75;;;1.63;;
51883;SDS011;37915;53.254;6.598;2023-08-31T02:05:08;6.68;;;1.70;;
51883;SDS011;37915;53.254;6.598;2023-08-31T02:07:35;5.75;;;2.08;;
51883;SDS011;37915;53.254;6.598;2023-08-31T02:10:00;6.57;;;1.92;;
51883;SDS011;37915;53.254;6.598;2023-08-31T02:12:26;5.43;;;2.10;;
51883;SDS011;37915;53.254;6.598;2023-08-31T02:14:52;7.13;;;1.73;;
51883;SDS011;37915;53.254;6.598;2023-08-31T02:17:18;7.25;;;1.77;;
51883;SDS011;37915;53.254;6.598;2023-08-31T02:19:44;7.30;;;1.98;;
51883;SDS011;37915;53.254;6.598;2023-08-31T02:22:10;4.50;;;1.77;;
51883;SDS011;37915;53.254;6.598;2023-08-31T02:24:36;5.65;;;1.73;;
51883;SDS011;37915;53.254;6.598;2023-08-31T02:27:01;4.55;;;1.52;;
51883;SDS011;37915;53.254;6.598;2023-08-31T02:29:27;3.28;;;1.65;;
51883;SDS011;37915;53.254;6.598;2023-08-31T02:31:53;7.32;;;1.73;;
51883;SDS011;37915;53.254;6.598;2023-08-31T02:34:18;8.50;;;2.38;;
51883;SDS011;37915;53.254;6.598;2023-08-31T02:36:44;5.13;;;2.30;;
51883;SDS011;37915;53.254;6.598;2023-08-31T02:39:10;5.78;;;1.60;;
51883;SDS011;37915;53.254;6.598;2023-08-31T02:41:35;5.50;;;1.70;;
51883;SDS011;37915;53.254;6.598;2023-08-31T02:44:01;3.92;;;1.67;;
51883;SDS011;37915;53.254;6.598;2023-08-31T02:46:27;8.65;;;1.70;;
51883;SDS011;37915;53.254;6.598;2023-08-31T02:48:53;4.20;;;1.52;;
51883;SDS011;37915;53.254;6.598;2023-08-31T02:51:18;5.60;;;1.63;;
51883;SDS011;37915;53.254;6.598;2023-08-31T02:53:44;3.33;;;1.40;;
51883;SDS011;37915;53.254;6.598;2023-08-31T02:56:09;3.28;;;1.27;;
51883;SDS011;37915;53.254;6.598;2023-08-31T02:58:35;3.72;;;1.40;;
51883;SDS011;37915;53.254;6.598;2023-08-31T03:01:10;3.95;;;1.50;;
51883;SDS011;37915;53.254;6.598;2023-08-31T03:03:41;4.93;;;1.45;;
51883;SDS011;37915;53.254;6.598;2023-08-31T03:06:07;4.80;;;1.35;;
51883;SDS011;37915;53.254;6.598;2023-08-31T03:08:37;5.85;;;1.30;;
51883;SDS011;37915;53.254;6.598;2023-08-31T03:11:04;3.55;;;1.40;;
51883;SDS011;37915;53.254;6.598;2023-08-31T03:13:33;5.55;;;1.80;;
51883;SDS011;37915;53.254;6.598;2023-08-31T03:15:59;5.35;;;1.50;;
51883;SDS011;37915;53.254;6.598;2023-08-31T03:18:25;5.30;;;1.33;;
51883;SDS011;37915;53.254;6.598;2023-08-31T03:20:51;3.53;;;1.25;;
51883;SDS011;37915;53.254;6.598;2023-08-31T03:23:17;3.22;;;0.98;;
51883;SDS011;37915;53.254;6.598;2023-08-31T03:25:43;5.13;;;1.50;;
51883;SDS011;37915;53.254;6.598;2023-08-31T03:28:08;6.57;;;1.42;;
51883;SDS011;37915;53.254;6.598;2023-08-31T03:30:35;3.42;;;1.13;;
51883;SDS011;37915;53.254;6.598;2023-08-31T03:33:01;4.00;;;1.20;;
51883;SDS011;37915;53.254;6.598;2023-08-31T03:35:27;4.47;;;1.30;;
51883;SDS011;37915;53.254;6.598;2023-08-31T03:37:54;4.75;;;1.15;;
51883;SDS011;37915;53.254;6.598;2023-08-31T03:40:20;3.90;;;1.02;;
51883;SDS011;37915;53.254;6.598;2023-08-31T03:42:46;3.58;;;1.42;;
51883;SDS011;37915;53.254;6.598;2023-08-31T03:45:12;3.40;;;1.30;;
51883;SDS011;37915;53.254;6.598;2023-08-31T03:47:38;3.55;;;1.42;;
51883;SDS011;37915;53.254;6.598;2023-08-31T03:50:04;7.30;;;1.75;;
51883;SDS011;37915;53.254;6.598;2023-08-31T03:52:30;5.30;;;1.20;;
51883;SDS011;37915;53.254;6.598;2023-08-31T03:54:56;3.65;;;1.20;;
51883;SDS011;37915;53.254;6.598;2023-08-31T03:57:21;4.15;;;1.20;;
51883;SDS011;37915;53.254;6.598;2023-08-31T03:59:47;5.00;;;1.10;;
51883;SDS011;37915;53.254;6.598;2023-08-31T04:02:13;3.47;;;1.10;;
51883;SDS011;37915;53.254;6.598;2023-08-31T04:04:39;4.57;;;1.33;;
51883;SDS011;37915;53.254;6.598;2023-08-31T04:07:05;4.03;;;1.27;;
51883;SDS011;37915;53.254;6.598;2023-08-31T04:09:31;3.85;;;1.15;;
51883;SDS011;37915;53.254;6.598;2023-08-31T04:11:57;4.50;;;1.10;;
51883;SDS011;37915;53.254;6.598;2023-08-31T04:14:23;3.90;;;1.10;;
51883;SDS011;37915;53.254;6.598;2023-08-31T04:16:51;4.80;;;1.23;;
51883;SDS011;37915;53.254;6.598;2023-08-31T04:19:17;3.28;;;1.10;;
51883;SDS011;37915;53.254;6.598;2023-08-31T04:21:42;5.68;;;1.27;;
51883;SDS011;37915;53.254;6.598;2023-08-31T04:24:08;4.10;;;1.20;;
51883;SDS011;37915;53.254;6.598;2023-08-31T04:26:34;5.25;;;1.73;;
51883;SDS011;37915;53.254;6.598;2023-08-31T04:29:01;4.15;;;1.58;;
51883;SDS011;37915;53.254;6.598;2023-08-31T04:31:28;6.65;;;1.50;;
51883;SDS011;37915;53.254;6.598;2023-08-31T04:33:54;5.20;;;1.70;;
51883;SDS011;37915;53.254;6.598;2023-08-31T04:36:20;3.65;;;1.52;;
51883;SDS011;37915;53.254;6.598;2023-08-31T04:38:47;3.70;;;1.40;;
51883;SDS011;37915;53.254;6.598;2023-08-31T04:41:14;5.90;;;1.55;;
51883;SDS011;37915;53.254;6.598;2023-08-31T04:43:40;3.63;;;1.63;;
51883;SDS011;37915;53.254;6.598;2023-08-31T04:46:05;5.95;;;1.67;;
51883;SDS011;37915;53.254;6.598;2023-08-31T04:48:31;4.72;;;1.52;;
51883;SDS011;37915;53.254;6.598;2023-08-31T04:50:57;4.80;;;1.55;;
51883;SDS011;37915;53.254;6.598;2023-08-31T04:53:23;3.15;;;1.50;;
51883;SDS011;37915;53.254;6.598;2023-08-31T04:55:49;6.57;;;1.88;;
51883;SDS011;37915;53.254;6.598;2023-08-31T04:58:15;8.10;;;1.75;;
51883;SDS011;37915;53.254;6.598;2023-08-31T05:00:41;8.15;;;1.67;;
51883;SDS011;37915;53.254;6.598;2023-08-31T05:03:07;5.95;;;1.70;;
51883;SDS011;37915;53.254;6.598;2023-08-31T05:05:32;6.07;;;1.63;;
51883;SDS011;37915;53.254;6.598;2023-08-31T05:07:58;5.72;;;1.95;;
51883;SDS011;37915;53.254;6.598;2023-08-31T05:10:24;6.78;;;1.80;;
51883;SDS011;37915;53.254;6.598;2023-08-31T05:12:49;4.88;;;1.73;;
51883;SDS011;37915;53.254;6.598;2023-08-31T05:15:15;5.03;;;1.70;;
51883;SDS011;37915;53.254;6.598;2023-08-31T05:17:41;4.70;;;1.85;;
51883;SDS011;37915;53.254;6.598;2023-08-31T05:20:07;5.47;;;1.92;;
51883;SDS011;37915;53.254;6.598;2023-08-31T05:22:35;6.38;;;1.80;;
51883;SDS011;37915;53.254;6.598;2023-08-31T05:25:01;4.30;;;1.95;;
51883;SDS011;37915;53.254;6.598;2023-08-31T05:27:26;4.90;;;1.85;;
51883;SDS011;37915;53.254;6.598;2023-08-31T05:29:52;8.05;;;2.35;;
51883;SDS011;37915;53.254;6.598;2023-08-31T05:32:18;7.15;;;2.03;;
51883;SDS011;37915;53.254;6.598;2023-08-31T05:34:43;7.28;;;2.03;;
51883;SDS011;37915;53.254;6.598;2023-08-31T05:37:09;4.25;;;1.95;;
51883;SDS011;37915;53.254;6.598;2023-08-31T05:39:35;6.70;;;2.13;;
51883;SDS011;37915;53.254;6.598;2023-08-31T05:42:00;5.45;;;2.00;;
51883;SDS011;37915;53.254;6.598;2023-08-31T05:44:26;5.05;;;1.90;;
51883;SDS011;37915;53.254;6.598;2023-08-31T05:46:52;6.53;;;1.95;;
51883;SDS011;37915;53.254;6.598;2023-08-31T05:49:17;6.70;;;1.75;;
51883;SDS011;37915;53.254;6.598;2023-08-31T05:51:43;8.00;;;2.55;;
51883;SDS011;37915;53.254;6.598;2023-08-31T05:54:09;5.05;;;1.70;;
51883;SDS011;37915;53.254;6.598;2023-08-31T05:56:37;6.18;;;1.98;;
51883;SDS011;37915;53.254;6.598;2023-08-31T05:59:05;5.00;;;1.92;;
51883;SDS011;37915;53.254;6.598;2023-08-31T06:01:31;8.50;;;1.95;;
51883;SDS011;37915;53.254;6.598;2023-08-31T06:03:57;6.63;;;2.53;;
51883;SDS011;37915;53.254;6.598;2023-08-31T06:06:23;7.53;;;1.90;;
51883;SDS011;37915;53.254;6.598;2023-08-31T06:08:48;7.15;;;1.92;;
51883;SDS011;37915;53.254;6.598;2023-08-31T06:11:14;9.25;;;1.73;;
51883;SDS011;37915;53.254;6.598;2023-08-31T06:13:40;5.85;;;1.58;;
51883;SDS011;37915;53.254;6.598;2023-08-31T06:16:06;7.47;;;1.92;;
51883;SDS011;37915;53.254;6.598;2023-08-31T06:18:32;4.82;;;1.77;;
51883;SDS011;37915;53.254;6.598;2023-08-31T06:20:57;9.38;;;1.98;;
51883;SDS011;37915;53.254;6.598;2023-08-31T06:23:23;6.13;;;1.40;;
51883;SDS011;37915;53.254;6.598;2023-08-31T06:25:49;5.95;;;1.48;;
51883;SDS011;37915;53.254;6.598;2023-08-31T06:28:15;5.40;;;1.58;;
51883;SDS011;37915;53.254;6.598;2023-08-31T06:30:41;6.45;;;1.65;;
51883;SDS011;37915;53.254;6.598;2023-08-31T06:33:11;4.88;;;1.23;;
51883;SDS011;37915;53.254;6.598;2023-08-31T06:35:40;5.10;;;1.40;;
51883;SDS011;37915;53.254;6.598;2023-08-31T06:38:06;4.15;;;1.67;;
51883;SDS011;37915;53.254;6.598;2023-08-31T06:40:32;4.05;;;1.40;;
51883;SDS011;37915;53.254;6.598;2023-08-31T06:42:58;5.35;;;1.48;;
51883;SDS011;37915;53.254;6.598;2023-08-31T06:45:24;6.57;;;1.90;;
51883;SDS011;37915;53.254;6.598;2023-08-31T06:47:50;4.55;;;1.40;;
51883;SDS011;37915;53.254;6.598;2023-08-31T06:50:16;3.50;;;1.30;;
51883;SDS011;37915;53.254;6.598;2023-08-31T06:52:41;4.60;;;1.40;;
51883;SDS011;37915;53.254;6.598;2023-08-31T06:55:09;3.15;;;1.10;;
51883;SDS011;37915;53.254;6.598;2023-08-31T06:57:36;6.70;;;1.33;;
51883;SDS011;37915;53.254;6.598;2023-08-31T07:00:02;3.00;;;1.15;;
51883;SDS011;37915;53.254;6.598;2023-08-31T07:02:29;3.25;;;1.25;;
51883;SDS011;37915;53.254;6.598;2023-08-31T07:04:54;4.13;;;1.23;;
51883;SDS011;37915;53.254;6.598;2023-08-31T07:07:20;6.00;;;1.10;;
51883;SDS011;37915;53.254;6.598;2023-08-31T07:09:46;5.13;;;1.50;;
51883;SDS011;37915;53.254;6.598;2023-08-31T07:12:13;6.60;;;1.50;;
51883;SDS011;37915;53.254;6.598;2023-08-31T07:14:39;5.75;;;1.23;;
51883;SDS011;37915;53.254;6.598;2023-08-31T07:17:05;5.03;;;1.00;;
51883;SDS011;37915;53.254;6.598;2023-08-31T07:19:30;4.97;;;1.30;;
51883;SDS011;37915;53.254;6.598;2023-08-31T07:21:56;4.07;;;1.40;;
51883;SDS011;37915;53.254;6.598;2023-08-31T07:24:23;6.30;;;1.38;;
51883;SDS011;37915;53.254;6.598;2023-08-31T07:26:49;6.35;;;1.55;;
51883;SDS011;37915;53.254;6.598;2023-08-31T07:29:15;3.15;;;1.30;;
51883;SDS011;37915;53.254;6.598;2023-08-31T07:31:41;3.78;;;1.10;;
51883;SDS011;37915;53.254;6.598;2023-08-31T07:34:07;5.57;;;1.10;;
51883;SDS011;37915;53.254;6.598;2023-08-31T07:36:32;5.00;;;1.30;;
51883;SDS011;37915;53.254;6.598;2023-08-31T07:38:58;4.85;;;1.30;;
51883;SDS011;37915;53.254;6.598;2023-08-31T07:41:24;4.25;;;0.90;;
51883;SDS011;37915;53.254;6.598;2023-08-31T07:43:50;5.03;;;1.33;;
51883;SDS011;37915;53.254;6.598;2023-08-31T07:46:16;4.95;;;1.48;;
51883;SDS011;37915;53.254;6.598;2023-08-31T07:48:42;4.75;;;1.30;;
51883;SDS011;37915;53.254;6.598;2023-08-31T07:51:08;4.38;;;1.10;;
51883;SDS011;37915;53.254;6.598;2023-08-31T07:53:34;3.50;;;0.93;;
51883;SDS011;37915;53.254;6.598;2023-08-31T07:56:00;2.58;;;0.90;;
51883;SDS011;37915;53.254;6.598;2023-08-31T07:58:25;4.32;;;1.38;;
51883;SDS011;37915;53.254;6.598;2023-08-31T08:00:55;3.83;;;1.20;;
51883;SDS011;37915;53.254;6.598;2023-08-31T08:03:21;3.70;;;1.00;;
51883;SDS011;37915;53.254;6.598;2023-08-31T08:05:48;3.53;;;1.02;;
51883;SDS011;37915;53.254;6.598;2023-08-31T08:08:14;5.70;;;1.20;;
51883;SDS011;37915;53.254;6.598;2023-08-31T08:10:42;3.42;;;1.00;;
51883;SDS011;37915;53.254;6.598;2023-08-31T08:13:08;4.30;;;1.00;;
51883;SDS011;37915;53.254;6.598;2023-08-31T08:15:35;3.67;;;0.95;;
51883;SDS011;37915;53.254;6.598;2023-08-31T08:18:00;3.15;;;0.80;;
51883;SDS011;37915;53.254;6.598;2023-08-31T08:20:27;7.80;;;1.58;;
51883;SDS011;37915;53.254;6.598;2023-08-31T08:22:53;5.22;;;1.33;;
51883;SDS011;37915;53.254;6.598;2023-08-31T08:25:19;2.90;;;1.10;;
51883;SDS011;37915;53.254;6.598;2023-08-31T08:27:45;3.97;;;1.00;;
51883;SDS011;37915;53.254;6.598;2023-08-31T08:30:12;5.30;;;0.90;;
51883;SDS011;37915;53.254;6.598;2023-08-31T08:32:38;3.50;;;1.30;;
51883;SDS011;37915;53.254;6.598;2023-08-31T08:35:04;4.60;;;0.90;;
51883;SDS011;37915;53.254;6.598;2023-08-31T08:37:30;4.47;;;0.98;;
51883;SDS011;37915;53.254;6.598;2023-08-31T08:39:58;3.78;;;0.90;;
51883;SDS011;37915;53.254;6.598;2023-08-31T08:42:24;2.42;;;1.02;;
51883;SDS011;37915;53.254;6.598;2023-08-31T08:44:51;4.38;;;1.02;;
51883;SDS011;37915;53.254;6.598;2023-08-31T08:47:17;3.15;;;1.10;;
51883;SDS011;37915;53.254;6.598;2023-08-31T08:49:43;3.80;;;0.90;;
51883;SDS011;37915;53.254;6.598;2023-08-31T08:52:09;2.92;;;0.80;;
51883;SDS011;37915;53.254;6.598;2023-08-31T08:54:37;1.83;;;0.80;;
51883;SDS011;37915;53.254;6.598;2023-08-31T08:57:03;4.68;;;0.90;;
51883;SDS011;37915;53.254;6.598;2023-08-31T08:59:30;3.28;;;0.95;;
51883;SDS011;37915;53.254;6.598;2023-08-31T09:01:56;2.95;;;0.80;;
51883;SDS011;37915;53.254;6.598;2023-08-31T09:04:22;3.20;;;1.08;;
51883;SDS011;37915;53.254;6.598;2023-08-31T09:06:50;6.38;;;1.02;;
51883;SDS011;37915;53.254;6.598;2023-08-31T09:09:16;3.05;;;1.00;;
51883;SDS011;37915;53.254;6.598;2023-08-31T09:11:42;2.67;;;0.80;;
51883;SDS011;37915;53.254;6.598;2023-08-31T09:14:18;3.10;;;0.75;;
51883;SDS011;37915;53.254;6.598;2023-08-31T09:16:45;3.30;;;0.85;;
51883;SDS011;37915;53.254;6.598;2023-08-31T09:19:18;2.97;;;0.88;;
51883;SDS011;37915;53.254;6.598;2023-08-31T09:21:44;6.22;;;0.70;;
51883;SDS011;37915;53.254;6.598;2023-08-31T09:24:11;2.85;;;0.90;;
51883;SDS011;37915;53.254;6.598;2023-08-31T09:26:38;2.85;;;0.85;;
51883;SDS011;37915;53.254;6.598;2023-08-31T09:29:08;4.60;;;0.93;;
51883;SDS011;37915;53.254;6.598;2023-08-31T09:31:33;5.05;;;0.95;;
51883;SDS011;37915;53.254;6.598;2023-08-31T09:33:59;3.58;;;1.17;;
51883;SDS011;37915;53.254;6.598;2023-08-31T09:36:28;4.65;;;1.20;;
51883;SDS011;37915;53.254;6.598;2023-08-31T09:38:56;3.28;;;0.95;;
51883;SDS011;37915;53.254;6.598;2023-08-31T09:41:23;2.95;;;0.85;;
51883;SDS011;37915;53.254;6.598;2023-08-31T09:43:49;3.00;;;1.00;;
51883;SDS011;37915;53.254;6.598;2023-08-31T09:46:15;4.85;;;0.90;;
51883;SDS011;37915;53.254;6.598;2023-08-31T09:48:41;4.05;;;0.95;;
51883;SDS011;37915;53.254;6.598;2023-08-31T09:51:09;2.47;;;0.90;;
51883;SDS011;37915;53.254;6.598;2023-08-31T09:53:36;3.78;;;1.25;;
51883;SDS011;37915;53.254;6.598;2023-08-31T09:56:04;1.90;;;0.60;;
51883;SDS011;37915;53.254;6.598;2023-08-31T09:58:30;3.08;;;1.13;;
51883;SDS011;37915;53.254;6.598;2023-08-31T10:00:57;2.65;;;0.90;;
51883;SDS011;37915;53.254;6.598;2023-08-31T10:03:24;2.90;;;0.90;;
51883;SDS011;37915;53.254;6.598;2023-08-31T10:05:52;2.33;;;0.90;;
51883;SDS011;37915;53.254;6.598;2023-08-31T10:08:19;2.22;;;0.93;;
51883;SDS011;37915;53.254;6.598;2023-08-31T10:10:44;2.30;;;0.88;;
51883;SDS011;37915;53.254;6.598;2023-08-31T10:13:11;4.57;;;0.90;;
51883;SDS011;37915;53.254;6.598;2023-08-31T10:15:37;4.15;;;1.10;;
51883;SDS011;37915;53.254;6.598;2023-08-31T10:18:04;2.63;;;0.88;;
51883;SDS011;37915;53.254;6.598;2023-08-31T10:20:31;2.33;;;0.90;;
51883;SDS011;37915;53.254;6.598;2023-08-31T10:22:58;2.42;;;0.90;;
51883;SDS011;37915;53.254;6.598;2023-08-31T10:25:59;4.03;;;0.98;;
51883;SDS011;37915;53.254;6.598;2023-08-31T10:28:20;3.40;;;1.00;;
51883;SDS011;37915;53.254;6.598;2023-08-31T10:31:07;2.88;;;1.02;;
51883;SDS011;37915;53.254;6.598;2023-08-31T10:33:41;2.47;;;0.98;;
51883;SDS011;37915;53.254;6.598;2023-08-31T10:36:14;4.70;;;0.80;;
51883;SDS011;37915;53.254;6.598;2023-08-31T10:38:42;3.65;;;1.27;;
51883;SDS011;37915;53.254;6.598;2023-08-31T10:41:24;3.72;;;0.90;;
51883;SDS011;37915;53.254;6.598;2023-08-31T10:43:54;2.83;;;0.70;;
51883;SDS011;37915;53.254;6.598;2023-08-31T10:46:30;3.42;;;1.00;;
51883;SDS011;37915;53.254;6.598;2023-08-31T10:48:58;2.90;;;0.80;;
51883;SDS011;37915;53.254;6.598;2023-08-31T10:51:30;3.47;;;1.15;;
51883;SDS011;37915;53.254;6.598;2023-08-31T10:54:09;2.88;;;0.90;;
51883;SDS011;37915;53.254;6.598;2023-08-31T10:59:24;1.60;;;0.80;;
51883;SDS011;37915;53.254;6.598;2023-08-31T11:01:51;3.75;;;0.82;;
51883;SDS011;37915;53.254;6.598;2023-08-31T11:04:28;1.73;;;0.80;;
51883;SDS011;37915;53.254;6.598;2023-08-31T11:07:17;3.17;;;0.95;;
51883;SDS011;37915;53.254;6.598;2023-08-31T11:09:44;2.97;;;1.02;;
51883;SDS011;37915;53.254;6.598;2023-08-31T11:12:11;2.85;;;0.85;;
51883;SDS011;37915;53.254;6.598;2023-08-31T11:14:38;6.07;;;0.93;;
51883;SDS011;37915;53.254;6.598;2023-08-31T11:17:04;4.40;;;1.20;;
51883;SDS011;37915;53.254;6.598;2023-08-31T11:19:34;3.42;;;0.90;;
51883;SDS011;37915;53.254;6.598;2023-08-31T11:22:00;4.30;;;0.90;;
51883;SDS011;37915;53.254;6.598;2023-08-31T11:24:28;2.53;;;0.90;;
51883;SDS011;37915;53.254;6.598;2023-08-31T11:26:57;5.15;;;0.90;;
51883;SDS011;37915;53.254;6.598;2023-08-31T11:29:23;6.53;;;1.10;;
51883;SDS011;37915;53.254;6.598;2023-08-31T11:31:49;3.40;;;1.08;;
51883;SDS011;37915;53.254;6.598;2023-08-31T11:34:15;5.47;;;1.02;;
51883;SDS011;37915;53.254;6.598;2023-08-31T11:36:42;2.78;;;0.90;;
51883;SDS011;37915;53.254;6.598;2023-08-31T11:39:09;5.97;;;1.33;;
51883;SDS011;37915;53.254;6.598;2023-08-31T11:41:36;3.42;;;0.90;;
51883;SDS011;37915;53.254;6.598;2023-08-31T11:44:06;3.28;;;1.23;;
51883;SDS011;37915;53.254;6.598;2023-08-31T11:46:33;2.88;;;0.70;;
51883;SDS011;37915;53.254;6.598;2023-08-31T11:48:59;3.35;;;1.02;;
51883;SDS011;37915;53.254;6.598;2023-08-31T11:51:26;3.45;;;1.00;;
51883;SDS011;37915;53.254;6.598;2023-08-31T11:53:54;2.97;;;1.20;;
51883;SDS011;37915;53.254;6.598;2023-08-31T11:56:23;5.72;;;1.17;;
51883;SDS011;37915;53.254;6.598;2023-08-31T11:58:50;2.88;;;0.95;;
51883;SDS011;37915;53.254;6.598;2023-08-31T12:01:20;2.10;;;0.80;;
51883;SDS011;37915;53.254;6.598;2023-08-31T12:03:46;4.20;;;1.00;;
51883;SDS011;37915;53.254;6.598;2023-08-31T12:06:18;2.67;;;1.23;;
51883;SDS011;37915;53.254;6.598;2023-08-31T12:08:44;4.30;;;0.90;;
51883;SDS011;37915;53.254;6.598;2023-08-31T12:11:10;3.35;;;1.17;;
51883;SDS011;37915;53.254;6.598;2023-08-31T12:13:36;4.43;;;1.15;;
51883;SDS011;37915;53.254;6.598;2023-08-31T12:16:02;4.95;;;1.63;;
51883;SDS011;37915;53.254;6.598;2023-08-31T12:18:32;4.32;;;1.23;;
51883;SDS011;37915;53.254;6.598;2023-08-31T12:21:02;3.97;;;1.40;;
51883;SDS011;37915;53.254;6.598;2023-08-31T12:23:29;8.05;;;1.50;;
51883;SDS011;37915;53.254;6.598;2023-08-31T12:25:55;3.70;;;1.45;;
51883;SDS011;37915;53.254;6.598;2023-08-31T12:28:22;4.70;;;1.50;;
51883;SDS011;37915;53.254;6.598;2023-08-31T12:30:52;6.60;;;1.45;;
51883;SDS011;37915;53.254;6.598;2023-08-31T12:33:18;3.08;;;1.00;;
51883;SDS011;37915;53.254;6.598;2023-08-31T12:35:46;5.32;;;1.20;;
51883;SDS011;37915;53.254;6.598;2023-08-31T12:38:12;4.43;;;1.30;;
51883;SDS011;37915;53.254;6.598;2023-08-31T12:40:38;5.95;;;1.50;;
51883;SDS011;37915;53.254;6.598;2023-08-31T12:43:04;5.13;;;1.30;;
51883;SDS011;37915;53.254;6.598;2023-08-31T12:45:30;5.22;;;1.55;;
51883;SDS011;37915;53.254;6.598;2023-08-31T12:47:56;4.38;;;1.30;;
51883;SDS011;37915;53.254;6.598;2023-08-31T12:50:22;3.95;;;1.42;;
51883;SDS011;37915;53.254;6.598;2023-08-31T12:52:48;5.20;;;1.33;;
51883;SDS011;37915;53.254;6.598;2023-08-31T12:55:14;5.35;;;1.48;;
51883;SDS011;37915;53.254;6.598;2023-08-31T12:57:40;5.38;;;1.30;;
51883;SDS011;37915;53.254;6.598;2023-08-31T13:00:07;4.78;;;1.40;;
51883;SDS011;37915;53.254;6.598;2023-08-31T13:02:40;3.35;;;1.17;;
51883;SDS011;37915;53.254;6.598;2023-08-31T13:05:07;8.30;;;1.40;;
51883;SDS011;37915;53.254;6.598;2023-08-31T13:07:35;5.85;;;1.20;;
51883;SDS011;37915;53.254;6.598;2023-08-31T13:10:01;4.10;;;1.02;;
51883;SDS011;37915;53.254;6.598;2023-08-31T13:12:32;5.75;;;1.15;;
51883;SDS011;37915;53.254;6.598;2023-08-31T13:14:58;4.22;;;1.50;;
51883;SDS011;37915;53.254;6.598;2023-08-31T13:17:25;16.02;;;1.58;;
51883;SDS011;37915;53.254;6.598;2023-08-31T13:19:54;5.18;;;1.33;;
51883;SDS011;37915;53.254;6.598;2023-08-31T13:22:21;4.68;;;1.38;;
51883;SDS011;37915;53.254;6.598;2023-08-31T13:24:47;4.93;;;1.08;;
51883;SDS011;37915;53.254;6.598;2023-08-31T13:27:13;4.85;;;1.30;;
51883;SDS011;37915;53.254;6.598;2023-08-31T13:29:38;3.30;;;1.30;;
51883;SDS011;37915;53.254;6.598;2023-08-31T13:32:05;4.93;;;1.10;;
51883;SDS011;37915;53.254;6.598;2023-08-31T13:34:32;2.33;;;0.90;;
51883;SDS011;37915;53.254;6.598;2023-08-31T13:36:58;3.75;;;1.00;;
51883;SDS011;37915;53.254;6.598;2023-08-31T13:39:24;3.40;;;1.38;;
51883;SDS011;37915;53.254;6.598;2023-08-31T13:41:50;5.13;;;1.15;;
51883;SDS011;37915;53.254;6.598;2023-08-31T13:44:17;2.97;;;1.13;;
51883;SDS011;37915;53.254;6.598;2023-08-31T13:46:43;7.18;;;1.15;;
51883;SDS011;37915;53.254;6.598;2023-08-31T13:49:09;5.75;;;1.65;;
51883;SDS011;37915;53.254;6.598;2023-08-31T13:51:34;6.28;;;1.30;;
51883;SDS011;37915;53.254;6.598;2023-08-31T13:54:01;5.60;;;1.45;;
51883;SDS011;37915;53.254;6.598;2023-08-31T13:56:29;4.55;;;1.20;;
51883;SDS011;37915;53.254;6.598;2023-08-31T13:58:54;7.53;;;1.48;;
51883;SDS011;37915;53.254;6.598;2023-08-31T14:01:20;3.92;;;1.27;;
51883;SDS011;37915;53.254;6.598;2023-08-31T14:03:46;3.70;;;1.17;;
51883;SDS011;37915;53.254;6.598;2023-08-31T14:06:13;4.93;;;0.90;;
51883;SDS011;37915;53.254;6.598;2023-08-31T14:08:40;6.70;;;1.25;;
51883;SDS011;37915;53.254;6.598;2023-08-31T14:11:06;5.15;;;1.38;;
51883;SDS011;37915;53.254;6.598;2023-08-31T14:13:31;4.70;;;1.10;;
51883;SDS011;37915;53.254;6.598;2023-08-31T14:15:57;6.53;;;1.30;;
51883;SDS011;37915;53.254;6.598;2023-08-31T14:18:23;4.35;;;1.30;;
51883;SDS011;37915;53.254;6.598;2023-08-31T14:20:51;4.20;;;1.33;;
51883;SDS011;37915;53.254;6.598;2023-08-31T14:23:16;6.68;;;1.38;;
51883;SDS011;37915;53.254;6.598;2023-08-31T14:25:42;7.82;;;1.73;;
51883;SDS011;37915;53.254;6.598;2023-08-31T14:28:08;4.60;;;1.50;;
51883;SDS011;37915;53.254;6.598;2023-08-31T14:30:36;5.28;;;1.38;;
51883;SDS011;37915;53.254;6.598;2023-08-31T14:33:02;4.63;;;1.10;;
51883;SDS011;37915;53.254;6.598;2023-08-31T14:35:29;3.78;;;1.17;;
51883;SDS011;37915;53.254;6.598;2023-08-31T14:37:55;3.72;;;0.98;;
51883;SDS011;37915;53.254;6.598;2023-08-31T14:40:21;3.20;;;1.20;;
51883;SDS011;37915;53.254;6.598;2023-08-31T14:42:47;5.63;;;1.23;;
51883;SDS011;37915;53.254;6.598;2023-08-31T14:45:12;3.42;;;1.10;;
51883;SDS011;37915;53.254;6.598;2023-08-31T14:47:38;7.80;;;1.40;;
51883;SDS011;37915;53.254;6.598;2023-08-31T14:50:04;6.68;;;1.52;;
51883;SDS011;37915;53.254;6.598;2023-08-31T14:52:30;4.55;;;1.20;;
51883;SDS011;37915;53.254;6.598;2023-08-31T14:54:55;5.45;;;1.50;;
51883;SDS011;37915;53.254;6.598;2023-08-31T14:57:21;5.57;;;1.23;;
51883;SDS011;37915;53.254;6.598;2023-08-31T14:59:47;2.20;;;0.80;;
51883;SDS011;37915;53.254;6.598;2023-08-31T15:02:13;4.97;;;1.20;;